Time;durP1;ratioP1;P1;durP2;ratioP2;P2;SDS_P1;SDS_P2;PMS_P1;PMS_P2;Temp;Humidity;BMP_temperature;BMP_pressure;BME280_temperature;BME280_humidity;BME280_pressure;Samples;Min_cycle;Max_cycle;Signal;HPM_P1;HPM_P2
2021/08/06 00:00:19;;;;;;;7.32;6.18;;;;;;;;;;5074654;28;20052;-59
2021/08/06 00:02:44;;;;;;;7.07;6.32;;;;;;;;;;5074630;28;20103;-56
2021/08/06 00:05:09;;;;;;;6.97;5.95;;;;;;;;;;5073115;28;20397;-58
2021/08/06 00:07:35;;;;;;;8.15;6.25;;;;;;;;;;5074307;28;20497;-59
2021/08/06 00:10:00;;;;;;;9.73;5.82;;;;;;;;;;5074444;28;20040;-59
2021/08/06 00:12:25;;;;;;;6.65;5.60;;;;;;;;;;5074213;28;20410;-57
2021/08/06 00:14:51;;;;;;;7.00;5.60;;;;;;;;;;5073957;28;20059;-59
2021/08/06 00:17:16;;;;;;;10.15;5.20;;;;;;;;;;5073911;28;20016;-58
2021/08/06 00:19:42;;;;;;;5.40;4.90;;;;;;;;;;5074015;28;20052;-59
2021/08/06 00:22:07;;;;;;;5.82;4.88;;;;;;;;;;5074517;28;20035;-59
2021/08/06 00:24:32;;;;;;;6.43;5.80;;;;;;;;;;5073746;28;20028;-59
2021/08/06 00:26:57;;;;;;;6.03;5.43;;;;;;;;;;5074388;28;20017;-59
2021/08/06 00:29:23;;;;;;;9.05;7.00;;;;;;;;;;5074013;28;20021;-59
2021/08/06 00:31:48;;;;;;;7.30;6.45;;;;;;;;;;5073809;28;20017;-59
2021/08/06 00:34:13;;;;;;;7.30;6.70;;;;;;;;;;5073611;28;20029;-59
2021/08/06 00:36:38;;;;;;;6.30;5.80;;;;;;;;;;5073805;28;20108;-58
2021/08/06 00:39:04;;;;;;;6.45;5.78;;;;;;;;;;5055899;28;20016;-59
2021/08/06 00:41:29;;;;;;;8.82;7.05;;;;;;;;;;5074049;28;20067;-58
2021/08/06 00:43:54;;;;;;;7.72;5.40;;;;;;;;;;5073814;28;20100;-58
2021/08/06 00:46:19;;;;;;;6.13;4.80;;;;;;;;;;5073430;28;20031;-58
2021/08/06 00:48:46;;;;;;;6.07;5.57;;;;;;;;;;5074250;28;20087;-59
2021/08/06 00:51:11;;;;;;;7.07;5.50;;;;;;;;;;5073898;28;20374;-58
2021/08/06 00:53:37;;;;;;;5.90;5.40;;;;;;;;;;5073603;28;20029;-58
2021/08/06 00:56:03;;;;;;;6.30;5.53;;;;;;;;;;5073495;28;20034;-59
2021/08/06 00:58:28;;;;;;;7.82;6.88;;;;;;;;;;5073322;28;20020;-59
2021/08/06 01:00:54;;;;;;;5.82;5.35;;;;;;;;;;5055354;28;20044;-59
2021/08/06 01:03:25;;;;;;;9.85;7.15;;;;;;;;;;5071910;28;20028;-58
2021/08/06 01:06:10;;;;;;;6.85;6.22;;;;;;;;;;5055182;28;20027;-58
2021/08/06 01:08:41;;;;;;;10.23;7.55;;;;;;;;;;5070047;28;20029;-58
2021/08/06 01:11:08;;;;;;;7.43;6.80;;;;;;;;;;5073409;28;20020;-58
2021/08/06 01:13:41;;;;;;;8.30;6.85;;;;;;;;;;5072802;28;20017;-59
2021/08/06 01:16:08;;;;;;;8.25;7.10;;;;;;;;;;5072929;28;20099;-59
2021/08/06 01:18:34;;;;;;;8.02;7.32;;;;;;;;;;5055513;28;20069;-58
2021/08/06 01:21:04;;;;;;;8.50;7.53;;;;;;;;;;5072934;28;20021;-58
2021/08/06 01:23:31;;;;;;;8.32;7.43;;;;;;;;;;5072887;28;20537;-56
2021/08/06 01:25:59;;;;;;;7.50;6.65;;;;;;;;;;5072792;28;20025;-58
2021/08/06 01:28:29;;;;;;;7.88;6.18;;;;;;;;;;5072900;28;20077;-58
2021/08/06 01:30:55;;;;;;;7.15;6.28;;;;;;;;;;5072502;28;20025;-58
2021/08/06 01:33:21;;;;;;;8.75;7.60;;;;;;;;;;5072525;28;20021;-59
2021/08/06 01:35:46;;;;;;;8.27;6.38;;;;;;;;;;5054695;28;20021;-59
2021/08/06 01:38:12;;;;;;;7.00;6.40;;;;;;;;;;5072789;28;20146;-59
2021/08/06 01:40:46;;;;;;;7.63;6.80;;;;;;;;;;5072669;28;20074;-59
2021/08/06 01:43:27;;;;;;;8.48;6.60;;;;;;;;;;5052835;28;20021;-59
2021/08/06 01:45:57;;;;;;;7.57;6.78;;;;;;;;;;5067715;28;20026;-58
2021/08/06 01:48:25;;;;;;;7.70;6.90;;;;;;;;;;5072419;28;20025;-60
2021/08/06 01:50:50;;;;;;;9.13;7.78;;;;;;;;;;5054661;28;20025;-59
2021/08/06 01:53:17;;;;;;;8.93;7.28;;;;;;;;;;5072645;28;20062;-58
2021/08/06 01:55:46;;;;;;;8.52;7.72;;;;;;;;;;5072284;28;20400;-58
2021/08/06 01:58:12;;;;;;;7.70;6.93;;;;;;;;;;5050687;28;20055;-58
2021/08/06 02:00:38;;;;;;;8.68;7.88;;;;;;;;;;5052559;28;20482;-58
2021/08/06 02:03:04;;;;;;;9.45;7.45;;;;;;;;;;5052088;28;20387;-59
2021/08/06 02:05:29;;;;;;;9.05;8.10;;;;;;;;;;5052275;28;20613;-59
2021/08/06 02:07:55;;;;;;;9.00;8.07;;;;;;;;;;5063736;28;20044;-59
2021/08/06 02:10:20;;;;;;;8.38;7.47;;;;;;;;;;5052230;28;20013;-57
2021/08/06 02:12:45;;;;;;;8.75;7.75;;;;;;;;;;5054359;28;20028;-59
2021/08/06 02:15:12;;;;;;;9.07;8.00;;;;;;;;;;5072149;28;20020;-59
2021/08/06 02:17:38;;;;;;;8.73;7.80;;;;;;;;;;5071897;28;20382;-59
2021/08/06 02:20:04;;;;;;;8.15;7.35;;;;;;;;;;5072171;28;20025;-58
2021/08/06 02:22:30;;;;;;;7.88;7.05;;;;;;;;;;5072260;28;20050;-59
2021/08/06 02:24:55;;;;;;;7.70;6.95;;;;;;;;;;5072155;28;20028;-59
2021/08/06 02:27:21;;;;;;;10.75;6.97;;;;;;;;;;5071625;28;20028;-58
2021/08/06 02:29:47;;;;;;;9.18;7.60;;;;;;;;;;5071785;28;20385;-58
2021/08/06 02:32:12;;;;;;;9.77;6.03;;;;;;;;;;5071659;28;20025;-58
2021/08/06 02:34:38;;;;;;;8.65;6.35;;;;;;;;;;5071707;28;20020;-59
2021/08/06 02:37:03;;;;;;;6.05;5.65;;;;;;;;;;5071680;28;20024;-58
2021/08/06 02:39:29;;;;;;;6.85;6.32;;;;;;;;;;5071911;28;20099;-59
2021/08/06 02:41:55;;;;;;;7.55;6.82;;;;;;;;;;5072287;28;20031;-59
2021/08/06 02:44:21;;;;;;;8.40;6.20;;;;;;;;;;5071482;28;20103;-58
2021/08/06 02:46:46;;;;;;;8.07;7.45;;;;;;;;;;5071180;28;20549;-59
2021/08/06 02:49:11;;;;;;;7.28;6.65;;;;;;;;;;5071666;28;20020;-59
2021/08/06 02:51:36;;;;;;;7.22;6.53;;;;;;;;;;5071802;28;20021;-59
2021/08/06 02:54:02;;;;;;;7.10;6.47;;;;;;;;;;5071349;28;20032;-58
2021/08/06 02:56:27;;;;;;;7.43;6.72;;;;;;;;;;5053590;28;20063;-59
2021/08/06 02:58:53;;;;;;;7.50;6.47;;;;;;;;;;5070953;28;20100;-57
2021/08/06 03:01:18;;;;;;;6.93;6.25;;;;;;;;;;5071500;28;20047;-58
2021/08/06 03:03:43;;;;;;;11.68;6.60;;;;;;;;;;5071405;28;20024;-58
2021/08/06 03:06:08;;;;;;;7.70;6.82;;;;;;;;;;5071172;28;20048;-58
2021/08/06 03:08:34;;;;;;;7.93;7.22;;;;;;;;;;5061588;28;20056;-58
2021/08/06 03:11:00;;;;;;;7.25;6.57;;;;;;;;;;5051859;28;20455;-58
2021/08/06 03:13:25;;;;;;;8.07;7.32;;;;;;;;;;5055774;28;20020;-58
2021/08/06 03:15:50;;;;;;;8.13;7.18;;;;;;;;;;5071417;28;20019;-57
2021/08/06 03:18:15;;;;;;;8.57;7.55;;;;;;;;;;5071220;28;20024;-58
2021/08/06 03:20:40;;;;;;;9.02;7.63;;;;;;;;;;5071204;28;20375;-57
2021/08/06 03:23:06;;;;;;;7.78;7.07;;;;;;;;;;5071594;28;20017;-59
2021/08/06 03:25:31;;;;;;;7.75;6.85;;;;;;;;;;5072690;28;20025;-58
2021/08/06 03:27:57;;;;;;;7.78;6.93;;;;;;;;;;5074730;28;20020;-59
2021/08/06 03:30:22;;;;;;;7.70;6.93;;;;;;;;;;5075202;28;20013;-58
2021/08/06 03:32:47;;;;;;;7.57;6.88;;;;;;;;;;5075067;28;20530;-59
2021/08/06 03:35:13;;;;;;;7.85;6.65;;;;;;;;;;5057176;28;20020;-59
2021/08/06 03:37:38;;;;;;;8.50;6.95;;;;;;;;;;5075052;28;20024;-58
2021/08/06 03:40:04;;;;;;;8.82;6.72;;;;;;;;;;5074999;28;20071;-59
2021/08/06 03:42:29;;;;;;;7.95;6.78;;;;;;;;;;5074693;28;20147;-59
2021/08/06 03:44:54;;;;;;;7.43;6.70;;;;;;;;;;5074667;28;20023;-60
2021/08/06 03:47:19;;;;;;;7.32;6.63;;;;;;;;;;5074627;28;20028;-58
2021/08/06 03:49:45;;;;;;;8.63;7.00;;;;;;;;;;5074915;28;20021;-56
2021/08/06 03:52:10;;;;;;;7.07;6.38;;;;;;;;;;5074824;28;20019;-57
2021/08/06 03:54:35;;;;;;;5.78;5.28;;;;;;;;;;5074614;28;20013;-59
2021/08/06 03:57:01;;;;;;;5.35;4.88;;;;;;;;;;5074552;28;20020;-58
2021/08/06 03:59:26;;;;;;;7.03;6.32;;;;;;;;;;5074693;28;20027;-58
2021/08/06 04:01:51;;;;;;;6.32;5.22;;;;;;;;;;5074198;28;20023;-59
2021/08/06 04:04:16;;;;;;;5.65;5.13;;;;;;;;;;5074584;28;20100;-59
2021/08/06 04:06:42;;;;;;;6.50;5.20;;;;;;;;;;5073970;28;20072;-58
2021/08/06 04:09:07;;;;;;;6.45;4.75;;;;;;;;;;5056458;28;20024;-59
2021/08/06 04:11:32;;;;;;;7.63;4.95;;;;;;;;;;5074180;28;20115;-59
2021/08/06 04:13:58;;;;;;;7.28;5.20;;;;;;;;;;5074284;28;20012;-58
2021/08/06 04:16:23;;;;;;;6.43;4.80;;;;;;;;;;5073621;28;20025;-58
2021/08/06 04:18:48;;;;;;;6.38;4.82;;;;;;;;;;5074764;28;20367;-59
2021/08/06 04:21:13;;;;;;;5.03;4.53;;;;;;;;;;5073990;28;20390;-58
2021/08/06 04:23:38;;;;;;;6.35;5.30;;;;;;;;;;5074266;28;20070;-59
2021/08/06 04:26:04;;;;;;;6.15;5.13;;;;;;;;;;5073951;28;20024;-59
2021/08/06 04:28:29;;;;;;;5.28;4.78;;;;;;;;;;5074025;28;20100;-59
2021/08/06 04:30:54;;;;;;;10.65;6.18;;;;;;;;;;5073979;28;20100;-59
2021/08/06 04:33:19;;;;;;;5.35;4.85;;;;;;;;;;5073707;28;20021;-59
2021/08/06 04:35:45;;;;;;;7.50;5.00;;;;;;;;;;5073530;28;20020;-59
2021/08/06 04:38:10;;;;;;;7.40;5.10;;;;;;;;;;5074052;28;20043;-57
2021/08/06 04:40:36;;;;;;;5.97;4.63;;;;;;;;;;5073925;28;20090;-59
2021/08/06 04:43:01;;;;;;;5.07;4.55;;;;;;;;;;5073888;28;20027;-59
2021/08/06 04:45:26;;;;;;;7.47;5.10;;;;;;;;;;5073505;28;20024;-58
2021/08/06 04:47:52;;;;;;;5.88;4.47;;;;;;;;;;5073444;28;20103;-59
2021/08/06 04:50:21;;;;;;;5.00;4.60;;;;;;;;;;5073782;28;20025;-58
2021/08/06 04:52:47;;;;;;;7.35;4.88;;;;;;;;;;5073694;28;20016;-57
2021/08/06 04:55:12;;;;;;;8.00;4.60;;;;;;;;;;5073279;28;20021;-59
2021/08/06 04:57:38;;;;;;;4.32;3.92;;;;;;;;;;5073407;28;20028;-59
2021/08/06 05:00:04;;;;;;;5.72;4.40;;;;;;;;;;5073159;28;20258;-59
2021/08/06 05:02:30;;;;;;;4.78;4.32;;;;;;;;;;5073394;28;20020;-57
2021/08/06 05:04:55;;;;;;;5.35;3.60;;;;;;;;;;5073472;28;20027;-59
2021/08/06 05:07:20;;;;;;;4.63;3.90;;;;;;;;;;5070409;28;20087;-57
2021/08/06 05:09:45;;;;;;;5.20;3.88;;;;;;;;;;5062260;28;20112;-59
2021/08/06 05:12:11;;;;;;;4.63;3.78;;;;;;;;;;5072930;28;20091;-58
2021/08/06 05:14:36;;;;;;;4.80;3.63;;;;;;;;;;5073173;28;20020;-59
2021/08/06 05:17:02;;;;;;;4.30;3.88;;;;;;;;;;5073006;28;20074;-58
2021/08/06 05:19:27;;;;;;;4.65;4.13;;;;;;;;;;5073338;28;20024;-58
2021/08/06 05:21:52;;;;;;;5.70;4.07;;;;;;;;;;5072949;28;20028;-59
2021/08/06 05:24:17;;;;;;;4.32;4.00;;;;;;;;;;5073217;28;20019;-58
2021/08/06 05:26:42;;;;;;;4.47;4.07;;;;;;;;;;5051194;28;20028;-58
2021/08/06 05:29:08;;;;;;;5.65;4.10;;;;;;;;;;5053080;28;20013;-58
2021/08/06 05:31:33;;;;;;;6.18;3.83;;;;;;;;;;5071441;28;20016;-58
2021/08/06 05:33:58;;;;;;;4.60;4.20;;;;;;;;;;5072809;28;20013;-59
2021/08/06 05:36:23;;;;;;;3.85;3.55;;;;;;;;;;5072795;28;20474;-58
2021/08/06 05:38:48;;;;;;;4.70;3.53;;;;;;;;;;5072954;28;20649;-59
2021/08/06 05:41:14;;;;;;;4.30;3.97;;;;;;;;;;5072090;28;20072;-56
2021/08/06 05:43:39;;;;;;;4.43;4.10;;;;;;;;;;5073138;28;20094;-58
2021/08/06 05:46:04;;;;;;;6.03;4.00;;;;;;;;;;5072450;28;20024;-59
2021/08/06 05:48:29;;;;;;;4.35;3.90;;;;;;;;;;5071748;28;20028;-59
2021/08/06 05:50:54;;;;;;;5.75;3.90;;;;;;;;;;5072484;28;20042;-58
2021/08/06 05:53:21;;;;;;;4.70;4.03;;;;;;;;;;5054361;28;20021;-58
2021/08/06 05:55:46;;;;;;;4.78;3.97;;;;;;;;;;5072240;28;20023;-59
2021/08/06 05:58:11;;;;;;;4.10;3.38;;;;;;;;;;5072434;28;20020;-59
2021/08/06 06:00:36;;;;;;;4.93;3.50;;;;;;;;;;5072214;28;20103;-59
2021/08/06 06:03:02;;;;;;;4.15;3.50;;;;;;;;;;5071736;28;20123;-58
2021/08/06 06:05:27;;;;;;;7.88;4.00;;;;;;;;;;5071892;28;20136;-63
2021/08/06 06:07:52;;;;;;;4.47;3.00;;;;;;;;;;5072002;28;20044;-59
2021/08/06 06:10:18;;;;;;;4.32;3.65;;;;;;;;;;5072268;28;20020;-60
2021/08/06 06:12:44;;;;;;;3.08;2.85;;;;;;;;;;5072299;28;20048;-60
2021/08/06 06:15:09;;;;;;;4.25;3.85;;;;;;;;;;5072287;28;20807;-59
2021/08/06 06:17:34;;;;;;;4.13;3.70;;;;;;;;;;5071296;28;20390;-60
2021/08/06 06:19:59;;;;;;;6.28;3.42;;;;;;;;;;5071944;28;20028;-60
2021/08/06 06:22:25;;;;;;;4.03;3.33;;;;;;;;;;5072113;28;20103;-59
2021/08/06 06:24:50;;;;;;;3.70;3.25;;;;;;;;;;5072134;28;20059;-59
2021/08/06 06:27:15;;;;;;;3.50;2.85;;;;;;;;;;5072135;28;20402;-59
2021/08/06 06:29:40;;;;;;;3.05;2.85;;;;;;;;;;5071706;28;20017;-58
2021/08/06 06:32:06;;;;;;;1.98;1.83;;;;;;;;;;5079007;28;20029;-60
2021/08/06 06:34:31;;;;;;;3.67;2.65;;;;;;;;;;5052664;28;20043;-58
2021/08/06 06:36:56;;;;;;;1.90;1.80;;;;;;;;;;5052457;28;20020;-58
2021/08/06 06:39:22;;;;;;;2.85;1.95;;;;;;;;;;5071887;28;20033;-59
2021/08/06 06:41:47;;;;;;;3.05;1.90;;;;;;;;;;5071747;28;20492;-60
2021/08/06 06:44:12;;;;;;;1.75;1.65;;;;;;;;;;5071574;28;20024;-60
2021/08/06 06:46:37;;;;;;;3.25;1.90;;;;;;;;;;5071419;28;20356;-60
2021/08/06 06:49:02;;;;;;;2.22;1.83;;;;;;;;;;5071926;28;20031;-59
2021/08/06 06:51:28;;;;;;;2.17;1.90;;;;;;;;;;5070940;28;20024;-57
2021/08/06 06:53:53;;;;;;;2.58;1.95;;;;;;;;;;5071422;28;20020;-59
2021/08/06 06:56:18;;;;;;;2.20;1.48;;;;;;;;;;5071838;28;20123;-60
2021/08/06 06:58:43;;;;;;;2.25;1.23;;;;;;;;;;5071797;28;20056;-60
2021/08/06 07:01:08;;;;;;;2.03;1.10;;;;;;;;;;5075925;28;20305;-60
2021/08/06 07:03:34;;;;;;;1.90;1.20;;;;;;;;;;5075355;28;20067;-60
2021/08/06 07:05:59;;;;;;;1.48;1.20;;;;;;;;;;5075451;28;20158;-60
2021/08/06 07:08:24;;;;;;;1.23;0.90;;;;;;;;;;5075844;28;20025;-60
2021/08/06 07:10:50;;;;;;;1.70;1.30;;;;;;;;;;5075763;28;20535;-60
2021/08/06 07:13:15;;;;;;;1.23;1.13;;;;;;;;;;5057944;28;20029;-59
2021/08/06 07:15:40;;;;;;;0.93;0.85;;;;;;;;;;5075668;28;20032;-60
2021/08/06 07:18:06;;;;;;;1.10;1.02;;;;;;;;;;5075146;28;20016;-60
2021/08/06 07:20:31;;;;;;;1.15;1.10;;;;;;;;;;5075235;28;20024;-60
2021/08/06 07:22:56;;;;;;;1.77;1.30;;;;;;;;;;5075732;28;20397;-59
2021/08/06 07:25:22;;;;;;;1.05;0.90;;;;;;;;;;5075466;28;20474;-59
2021/08/06 07:27:47;;;;;;;1.05;0.95;;;;;;;;;;5075153;28;20499;-59
2021/08/06 07:30:12;;;;;;;1.25;1.15;;;;;;;;;;5074958;28;20020;-57
2021/08/06 07:32:37;;;;;;;1.77;1.08;;;;;;;;;;5074889;28;20025;-58
2021/08/06 07:35:04;;;;;;;1.00;0.88;;;;;;;;;;5074602;28;20024;-57
2021/08/06 07:37:29;;;;;;;1.42;1.10;;;;;;;;;;5075135;28;20067;-57
2021/08/06 07:39:54;;;;;;;1.40;0.97;;;;;;;;;;5075132;28;20052;-59
2021/08/06 07:42:20;;;;;;;1.42;1.33;;;;;;;;;;5075036;28;20271;-59
2021/08/06 07:44:45;;;;;;;1.27;1.17;;;;;;;;;;5074981;28;20032;-58
2021/08/06 07:47:10;;;;;;;2.92;1.50;;;;;;;;;;5074762;28;20118;-60
2021/08/06 07:49:36;;;;;;;1.58;1.38;;;;;;;;;;5074620;28;20016;-59
2021/08/06 07:52:01;;;;;;;1.98;1.10;;;;;;;;;;5074493;28;20024;-60
2021/08/06 07:54:26;;;;;;;1.35;1.23;;;;;;;;;;5074971;28;20474;-60
2021/08/06 07:56:51;;;;;;;1.20;1.10;;;;;;;;;;5074856;28;20107;-59
2021/08/06 07:59:19;;;;;;;2.22;1.20;;;;;;;;;;5074942;28;20063;-59
2021/08/06 08:01:44;;;;;;;1.40;1.30;;;;;;;;;;5074146;28;20044;-60
2021/08/06 08:04:09;;;;;;;1.40;0.90;;;;;;;;;;5074304;28;20060;-60
2021/08/06 08:06:35;;;;;;;2.53;0.90;;;;;;;;;;5074621;28;20044;-60
2021/08/06 08:09:00;;;;;;;1.83;0.90;;;;;;;;;;5059566;28;20021;-58
2021/08/06 08:11:25;;;;;;;5.27;1.30;;;;;;;;;;5072095;28;20263;-57
2021/08/06 08:13:50;;;;;;;1.63;1.45;;;;;;;;;;5074115;28;20620;-58
2021/08/06 08:16:15;;;;;;;1.27;1.17;;;;;;;;;;5074374;28;20531;-59
2021/08/06 08:18:41;;;;;;;2.25;1.48;;;;;;;;;;5074343;28;20020;-58
2021/08/06 08:21:06;;;;;;;1.00;0.90;;;;;;;;;;5074151;28;20051;-59
2021/08/06 08:23:31;;;;;;;1.38;1.17;;;;;;;;;;5074242;28;20267;-59
2021/08/06 08:25:56;;;;;;;1.42;1.33;;;;;;;;;;5074151;28;20099;-59
2021/08/06 08:28:22;;;;;;;1.38;1.05;;;;;;;;;;5073295;28;20462;-58
2021/08/06 08:30:48;;;;;;;1.33;1.33;;;;;;;;;;5074118;28;20040;-59
2021/08/06 08:33:15;;;;;;;1.83;1.70;;;;;;;;;;5072773;28;20024;-58
2021/08/06 08:35:40;;;;;;;1.48;1.30;;;;;;;;;;5073648;28;20055;-59
2021/08/06 08:38:05;;;;;;;1.08;0.95;;;;;;;;;;5074002;28;20056;-60
2021/08/06 08:40:31;;;;;;;2.37;1.30;;;;;;;;;;5073215;28;20024;-59
2021/08/06 08:42:56;;;;;;;1.80;1.00;;;;;;;;;;5074159;28;20294;-60
2021/08/06 08:45:21;;;;;;;1.10;1.00;;;;;;;;;;5073884;28;20024;-59
2021/08/06 08:47:47;;;;;;;1.67;1.07;;;;;;;;;;5073054;28;20074;-60
2021/08/06 08:50:14;;;;;;;1.52;1.05;;;;;;;;;;5073351;28;20271;-59
2021/08/06 08:52:39;;;;;;;1.20;1.10;;;;;;;;;;5073854;28;20498;-58
2021/08/06 08:55:05;;;;;;;1.55;0.90;;;;;;;;;;5073768;28;20017;-59
2021/08/06 08:57:30;;;;;;;1.02;1.02;;;;;;;;;;5073828;28;20036;-57
2021/08/06 08:59:56;;;;;;;0.88;0.88;;;;;;;;;;5073245;28;20024;-58
2021/08/06 09:02:22;;;;;;;1.73;0.80;;;;;;;;;;5073340;28;20547;-59
2021/08/06 09:04:48;;;;;;;1.10;1.05;;;;;;;;;;5073714;28;20025;-58
2021/08/06 09:07:30;;;;;;;1.10;0.90;;;;;;;;;;5072449;28;20068;-58
2021/08/06 09:10:12;;;;;;;1.70;1.50;;;;;;;;;;5073659;28;20115;-58
2021/08/06 09:12:51;;;;;;;0.80;0.70;;;;;;;;;;5073700;28;20009;-59
2021/08/06 09:15:18;;;;;;;0.82;0.82;;;;;;;;;;5073397;28;20012;-58
2021/08/06 09:17:43;;;;;;;1.25;1.15;;;;;;;;;;5072786;28;20036;-58
2021/08/06 09:20:10;;;;;;;1.40;1.30;;;;;;;;;;5054924;28;20024;-58
2021/08/06 09:22:35;;;;;;;1.50;0.70;;;;;;;;;;5072688;28;20029;-58
2021/08/06 09:25:03;;;;;;;0.73;0.68;;;;;;;;;;5072597;28;20379;-56
2021/08/06 09:27:30;;;;;;;1.08;0.90;;;;;;;;;;5072808;28;20099;-58
2021/08/06 09:29:59;;;;;;;0.98;0.80;;;;;;;;;;5072702;28;20119;-58
2021/08/06 09:32:25;;;;;;;1.35;0.70;;;;;;;;;;5072663;28;20040;-59
2021/08/06 09:34:50;;;;;;;0.80;0.80;;;;;;;;;;5072877;28;20020;-54
2021/08/06 09:37:19;;;;;;;0.80;0.80;;;;;;;;;;5054779;28;20021;-58
2021/08/06 09:39:56;;;;;;;1.88;0.70;;;;;;;;;;5072796;28;20056;-58
2021/08/06 09:42:23;;;;;;;0.70;0.70;;;;;;;;;;5072855;28;20040;-56
2021/08/06 09:45:03;;;;;;;0.93;0.80;;;;;;;;;;5072821;28;20024;-58
2021/08/06 09:47:29;;;;;;;0.57;0.47;;;;;;;;;;5071897;28;20012;-58
2021/08/06 09:49:57;;;;;;;0.68;0.60;;;;;;;;;;5072049;28;20020;-59
2021/08/06 09:52:32;;;;;;;1.25;0.70;;;;;;;;;;5072682;28;20386;-57
2021/08/06 09:54:57;;;;;;;2.47;0.63;;;;;;;;;;5054336;28;20025;-58
2021/08/06 09:57:23;;;;;;;0.70;0.52;;;;;;;;;;5058798;28;20545;-58
2021/08/06 09:59:52;;;;;;;0.85;0.60;;;;;;;;;;5072297;28;20474;-59
2021/08/06 10:02:18;;;;;;;0.95;0.50;;;;;;;;;;5071874;28;20020;-59
2021/08/06 10:04:44;;;;;;;0.98;0.50;;;;;;;;;;5072094;28;20021;-58
2021/08/06 10:07:10;;;;;;;0.52;0.52;;;;;;;;;;5071496;28;20122;-60
2021/08/06 10:09:35;;;;;;;0.70;0.43;;;;;;;;;;5070699;28;20025;-60
2021/08/06 10:12:01;;;;;;;1.00;0.55;;;;;;;;;;5072271;28;20020;-59
2021/08/06 10:14:26;;;;;;;1.40;0.50;;;;;;;;;;5071815;28;20366;-59
2021/08/06 10:16:53;;;;;;;0.30;0.30;;;;;;;;;;5071915;28;20044;-60
2021/08/06 10:19:18;;;;;;;1.45;1.13;;;;;;;;;;5072252;28;20016;-60
2021/08/06 10:21:44;;;;;;;0.77;0.40;;;;;;;;;;5072152;28;20477;-60
2021/08/06 10:24:14;;;;;;;0.65;0.40;;;;;;;;;;5072150;28;20067;-59
2021/08/06 10:26:44;;;;;;;0.45;0.45;;;;;;;;;;5054046;28;20016;-59
2021/08/06 10:29:09;;;;;;;0.43;0.40;;;;;;;;;;5071677;28;20466;-57
2021/08/06 10:31:35;;;;;;;0.82;0.40;;;;;;;;;;5053775;28;20025;-60
2021/08/06 10:34:11;;;;;;;2.40;0.50;;;;;;;;;;5071413;28;20031;-57
2021/08/06 10:36:37;;;;;;;0.50;0.30;;;;;;;;;;5071265;28;20822;-59
2021/08/06 10:39:02;;;;;;;0.65;0.30;;;;;;;;;;5071699;28;20044;-59
2021/08/06 10:41:47;;;;;;;2.00;0.40;;;;;;;;;;5071741;28;20052;-59
2021/08/06 10:44:12;;;;;;;0.60;0.20;;;;;;;;;;5071512;28;20862;-58
2021/08/06 10:46:57;;;;;;;0.40;0.30;;;;;;;;;;5071232;28;20107;-59
2021/08/06 10:49:23;;;;;;;1.65;0.30;;;;;;;;;;5071793;28;20031;-60
2021/08/06 10:51:48;;;;;;;1.73;0.40;;;;;;;;;;5071664;28;20021;-59
2021/08/06 10:54:24;;;;;;;0.65;0.40;;;;;;;;;;5071656;28;20529;-61
2021/08/06 10:57:10;;;;;;;1.52;0.40;;;;;;;;;;5064231;28;20106;-59
2021/08/06 10:59:39;;;;;;;0.82;0.40;;;;;;;;;;5069640;28;20032;-59
2021/08/06 11:02:04;;;;;;;0.30;0.28;;;;;;;;;;5071457;28;20052;-59
2021/08/06 11:04:29;;;;;;;0.32;0.25;;;;;;;;;;5071124;28;20478;-59
2021/08/06 11:06:55;;;;;;;0.22;0.22;;;;;;;;;;5071676;28;20054;-59
2021/08/06 11:12:10;;;;;;;0.57;0.30;;;;;;;;;;5051986;28;20021;-60
2021/08/06 11:14:35;;;;;;;0.28;0.28;;;;;;;;;;5071336;28;20031;-60
2021/08/06 11:17:03;;;;;;;0.20;0.20;;;;;;;;;;5071193;28;20021;-59
2021/08/06 11:19:36;;;;;;;1.00;0.30;;;;;;;;;;5071645;28;20016;-60
2021/08/06 11:22:04;;;;;;;0.20;0.20;;;;;;;;;;5051425;28;20390;-59
2021/08/06 11:24:42;;;;;;;0.30;0.30;;;;;;;;;;5051770;28;20657;-59
2021/08/06 11:27:08;;;;;;;0.47;0.30;;;;;;;;;;5070982;28;20043;-60
2021/08/06 11:29:34;;;;;;;0.50;0.20;;;;;;;;;;5071406;28;20454;-58
2021/08/06 11:32:06;;;;;;;1.00;0.50;;;;;;;;;;5071049;28;20074;-59
2021/08/06 11:34:50;;;;;;;0.75;0.25;;;;;;;;;;5071046;28;20020;-59
2021/08/06 11:37:15;;;;;;;0.20;0.20;;;;;;;;;;5071234;28;20541;-59
2021/08/06 11:39:59;;;;;;;1.00;0.25;;;;;;;;;;5071170;28;20127;-59
2021/08/06 11:42:24;;;;;;;0.47;0.30;;;;;;;;;;5071748;28;20358;-57
2021/08/06 11:44:54;;;;;;;1.70;0.40;;;;;;;;;;5070489;28;21174;-60
2021/08/06 11:47:32;;;;;;;0.45;0.30;;;;;;;;;;5073398;28;20282;-60
2021/08/06 11:49:57;;;;;;;0.50;0.40;;;;;;;;;;5074309;28;20049;-59
2021/08/06 11:52:34;;;;;;;0.43;0.30;;;;;;;;;;5075005;28;20419;-59
2021/08/06 11:55:00;;;;;;;2.33;0.47;;;;;;;;;;5056804;28;20035;-59
2021/08/06 11:57:40;;;;;;;1.07;0.40;;;;;;;;;;5075360;28;20021;-59
2021/08/06 12:00:16;;;;;;;0.65;0.50;;;;;;;;;;5074292;28;20059;-59
2021/08/06 12:02:41;;;;;;;1.40;0.73;;;;;;;;;;5073799;28;20389;-59
2021/08/06 12:05:23;;;;;;;1.17;0.73;;;;;;;;;;5056431;28;20119;-58
2021/08/06 12:07:48;;;;;;;0.65;0.65;;;;;;;;;;5070047;28;20152;-57
2021/08/06 12:10:13;;;;;;;2.05;0.90;;;;;;;;;;5074589;28;20107;-59
2021/08/06 12:12:38;;;;;;;1.52;0.60;;;;;;;;;;5074694;28;20032;-58
2021/08/06 12:15:20;;;;;;;0.60;0.60;;;;;;;;;;5074070;28;20512;-59
2021/08/06 12:17:46;;;;;;;2.75;0.80;;;;;;;;;;5074140;28;20477;-59
2021/08/06 12:20:11;;;;;;;0.57;0.57;;;;;;;;;;5074437;28;20020;-58
2021/08/06 12:22:39;;;;;;;1.50;0.57;;;;;;;;;;5074430;28;20494;-60
2021/08/06 12:25:11;;;;;;;4.95;1.55;;;;;;;;;;5074110;28;20034;-60
2021/08/06 12:27:36;;;;;;;4.15;0.70;;;;;;;;;;5074347;28;20078;-59
2021/08/06 12:30:21;;;;;;;1.43;0.53;;;;;;;;;;5073594;28;20025;-59
2021/08/06 12:32:46;;;;;;;0.60;0.57;;;;;;;;;;5073714;28;20255;-59
2021/08/06 12:35:17;;;;;;;1.23;0.67;;;;;;;;;;5073908;28;20065;-59
2021/08/06 12:37:42;;;;;;;1.05;0.60;;;;;;;;;;5074146;28;20743;-60
2021/08/06 12:40:08;;;;;;;1.00;0.60;;;;;;;;;;5074119;28;20032;-60
2021/08/06 12:42:36;;;;;;;0.65;0.60;;;;;;;;;;5074015;28;20263;-59
2021/08/06 12:45:03;;;;;;;0.52;0.50;;;;;;;;;;5073342;28;20447;-58
2021/08/06 12:47:40;;;;;;;3.15;0.60;;;;;;;;;;5073659;28;20492;-59
2021/08/06 12:50:06;;;;;;;2.03;0.60;;;;;;;;;;5073810;28;20084;-59
2021/08/06 12:52:35;;;;;;;1.67;0.60;;;;;;;;;;5073797;28;20159;-59
2021/08/06 12:55:00;;;;;;;2.17;0.43;;;;;;;;;;5073726;28;20089;-59
2021/08/06 12:57:37;;;;;;;0.60;0.57;;;;;;;;;;5073491;28;20529;-59
2021/08/06 13:00:11;;;;;;;1.13;0.52;;;;;;;;;;5093321;28;20323;-59
2021/08/06 13:02:37;;;;;;;1.23;0.47;;;;;;;;;;5093489;28;20027;-59
2021/08/06 13:05:06;;;;;;;1.83;0.70;;;;;;;;;;5073096;28;20021;-60
2021/08/06 13:07:31;;;;;;;1.55;0.82;;;;;;;;;;5072162;28;20295;-58
2021/08/06 13:09:57;;;;;;;1.85;0.80;;;;;;;;;;5073332;28;20017;-58
2021/08/06 13:12:22;;;;;;;1.38;0.82;;;;;;;;;;5073467;28;20039;-58
2021/08/06 13:14:48;;;;;;;0.88;0.65;;;;;;;;;;5073262;28;20025;-58
2021/08/06 13:17:14;;;;;;;0.68;0.60;;;;;;;;;;5073152;28;20397;-58
2021/08/06 13:19:40;;;;;;;2.45;0.60;;;;;;;;;;5073311;28;20027;-58
2021/08/06 13:22:06;;;;;;;0.60;0.60;;;;;;;;;;5073252;28;20107;-58
2021/08/06 13:24:31;;;;;;;2.53;0.57;;;;;;;;;;5073236;28;20036;-58
2021/08/06 13:26:57;;;;;;;2.00;0.63;;;;;;;;;;5073297;28;20034;-57
2021/08/06 13:29:22;;;;;;;1.60;0.50;;;;;;;;;;5072732;28;20409;-58
2021/08/06 13:31:47;;;;;;;1.02;0.40;;;;;;;;;;5072499;28;20048;-58
2021/08/06 13:34:13;;;;;;;2.43;0.50;;;;;;;;;;5072667;28;20356;-56
2021/08/06 13:36:38;;;;;;;0.30;0.23;;;;;;;;;;5072860;28;20613;-58
2021/08/06 13:39:03;;;;;;;0.60;0.28;;;;;;;;;;5073046;28;20255;-59
2021/08/06 13:41:28;;;;;;;0.30;0.20;;;;;;;;;;5072694;28;20016;-59
2021/08/06 13:43:54;;;;;;;0.30;0.30;;;;;;;;;;5072643;28;20027;-59
2021/08/06 13:46:19;;;;;;;0.50;0.30;;;;;;;;;;5072950;28;20020;-59
2021/08/06 13:48:44;;;;;;;0.10;0.10;;;;;;;;;;5072006;28;20483;-58
2021/08/06 13:51:09;;;;;;;1.40;0.30;;;;;;;;;;5072049;28;20278;-59
2021/08/06 13:53:34;;;;;;;1.60;0.30;;;;;;;;;;5073078;28;20262;-59
2021/08/06 13:56:00;;;;;;;0.60;0.27;;;;;;;;;;5072365;28;20378;-60
2021/08/06 13:58:25;;;;;;;0.30;0.30;;;;;;;;;;5072346;28;20266;-59
2021/08/06 14:00:50;;;;;;;1.08;0.20;;;;;;;;;;5072407;28;20479;-58
2021/08/06 14:03:15;;;;;;;0.60;0.20;;;;;;;;;;5072016;28;20024;-59
2021/08/06 14:05:43;;;;;;;0.33;0.20;;;;;;;;;;5072149;28;20020;-58
2021/08/06 14:08:08;;;;;;;1.10;0.25;;;;;;;;;;5072284;28;20036;-60
2021/08/06 14:10:33;;;;;;;1.60;0.30;;;;;;;;;;5053337;28;20020;-60
2021/08/06 14:12:58;;;;;;;0.50;0.30;;;;;;;;;;5054332;28;20319;-59
2021/08/06 14:15:24;;;;;;;0.30;0.20;;;;;;;;;;5071886;28;20032;-59
2021/08/06 14:17:52;;;;;;;1.53;0.30;;;;;;;;;;5071721;28;20032;-58
2021/08/06 14:20:17;;;;;;;0.95;0.20;;;;;;;;;;5072103;28;20281;-60
2021/08/06 14:22:43;;;;;;;1.17;0.25;;;;;;;;;;5072058;28;20013;-60
2021/08/06 14:25:08;;;;;;;0.30;0.20;;;;;;;;;;5072204;28;20077;-60
2021/08/06 14:27:33;;;;;;;0.63;0.17;;;;;;;;;;5071913;28;20279;-59
2021/08/06 14:29:59;;;;;;;0.90;0.30;;;;;;;;;;5071937;28;20142;-59
2021/08/06 14:32:24;;;;;;;0.30;0.20;;;;;;;;;;5071434;28;20317;-59
2021/08/06 14:34:50;;;;;;;0.20;0.20;;;;;;;;;;5071644;28;20374;-59
2021/08/06 14:37:15;;;;;;;0.73;0.20;;;;;;;;;;5054373;28;20293;-59
2021/08/06 14:39:40;;;;;;;1.08;0.10;;;;;;;;;;5071815;28;20024;-58
2021/08/06 14:42:06;;;;;;;0.22;0.20;;;;;;;;;;5071851;28;20021;-58